Time;durP1;ratioP1;P1;durP2;ratioP2;P2;SDS_P1;SDS_P2;PMS_P1;PMS_P2;Temp;Humidity;BMP_temperature;BMP_pressure;BME280_temperature;BME280_humidity;BME280_pressure;Samples;Min_cycle;Max_cycle;Signal;HPM_P1;HPM_P2
2022/10/20 00:00:09;;;;;;;9.70;3.40;;;7.80;99.90;;;;;;4234181;28;20072;-85
2022/10/20 00:02:10;;;;;;;7.32;3.25;;;7.60;99.90;;;;;;4234277;28;20074;-86
2022/10/20 00:04:11;;;;;;;8.73;3.22;;;7.60;99.90;;;;;;4233625;28;20052;-85
2022/10/20 00:06:21;;;;;;;8.20;3.35;;;7.60;99.90;;;;;;4233076;28;20047;-86
2022/10/20 00:08:22;;;;;;;7.57;3.33;;;7.60;99.90;;;;;;4232629;28;20051;-85
2022/10/20 00:10:23;;;;;;;8.40;3.30;;;6.10;99.90;;;;;;4231925;28;20040;-86
2022/10/20 00:12:23;;;;;;;10.88;3.72;;;7.60;99.90;;;;;;4232124;28;20044;-86
2022/10/20 00:14:24;;;;;;;7.18;3.33;;;7.70;99.90;;;;;;4232900;28;20062;-86
2022/10/20 00:16:27;;;;;;;7.57;3.78;;;7.60;99.90;;;;;;4230593;28;20052;-85
2022/10/20 00:18:28;;;;;;;11.75;3.58;;;7.40;99.90;;;;;;4233166;28;20473;-85
2022/10/20 00:20:30;;;;;;;9.63;3.58;;;7.50;99.90;;;;;;4232269;28;20086;-86
2022/10/20 00:22:31;;;;;;;9.70;3.33;;;7.40;99.90;;;;;;4232592;28;20044;-85
2022/10/20 00:24:32;;;;;;;8.90;3.35;;;7.40;99.90;;;;;;4231641;28;20531;-85
2022/10/20 00:26:33;;;;;;;7.22;3.17;;;7.40;99.90;;;;;;4232988;28;20039;-85
2022/10/20 00:28:34;;;;;;;8.55;3.35;;;8.00;99.90;;;;;;4215024;28;20055;-85
2022/10/20 00:30:37;;;;;;;12.45;3.40;;;7.20;99.90;;;;;;4232161;28;20043;-85
2022/10/20 00:32:39;;;;;;;10.18;3.88;;;7.50;99.90;;;;;;4232998;28;20054;-85
2022/10/20 00:34:40;;;;;;;7.63;3.55;;;7.40;99.90;;;;;;4232763;28;20048;-86
2022/10/20 00:36:41;;;;;;;6.38;2.90;;;7.30;99.90;;;;;;4233338;28;20043;-86
2022/10/20 00:38:42;;;;;;;5.35;3.35;;;7.30;99.90;;;;;;4214227;28;20512;-86
2022/10/20 00:40:44;;;;;;;6.88;3.13;;;7.30;99.90;;;;;;4232582;28;20054;-86
2022/10/20 00:42:46;;;;;;;6.40;3.47;;;7.40;99.90;;;;;;4214435;28;20548;-85
2022/10/20 00:44:46;;;;;;;11.73;4.05;;;7.40;99.90;;;;;;4232577;28;20046;-86
2022/10/20 00:46:47;;;;;;;8.55;3.65;;;7.30;99.90;;;;;;4231369;28;20039;-86
2022/10/20 00:48:52;;;;;;;10.30;3.58;;;7.80;99.90;;;;;;4214291;28;20494;-85
2022/10/20 00:50:57;;;;;;;13.25;3.63;;;7.30;99.90;;;;;;4230962;28;20046;-85
2022/10/20 00:53:00;;;;;;;12.40;3.45;;;7.30;99.90;;;;;;4232141;28;20493;-85
2022/10/20 00:55:01;;;;;;;10.75;3.30;;;7.20;99.90;;;;;;4232217;28;20047;-86
2022/10/20 00:57:02;;;;;;;6.90;3.20;;;7.40;99.90;;;;;;4214316;28;20078;-85
2022/10/20 00:59:04;;;;;;;11.38;3.30;;;7.20;99.90;;;;;;4231037;28;20052;-85
2022/10/20 01:01:06;;;;;;;6.25;2.55;;;7.20;99.90;;;;;;4232535;28;20136;-85
2022/10/20 01:03:15;;;;;;;8.02;3.63;;;7.10;99.90;;;;;;4231806;28;20039;-85
2022/10/20 01:05:18;;;;;;;10.45;3.78;;;7.20;99.90;;;;;;4209253;28;20051;-85
2022/10/20 01:07:19;;;;;;;5.35;3.00;;;7.30;99.90;;;;;;4215973;28;20054;-85
2022/10/20 01:09:20;;;;;;;5.60;3.10;;;5.90;99.90;;;;;;4198232;28;20522;-86
2022/10/20 01:11:30;;;;;;;5.45;3.22;;;8.20;99.90;;;;;;4223348;28;20088;-86
2022/10/20 01:13:42;;;;;;;5.05;3.10;;;7.20;99.90;;;;;;4230754;28;20043;-86
2022/10/20 01:16:20;;;;;;;10.30;3.40;;;6.10;99.90;;;;;;4214358;28;20051;-85
2022/10/20 01:18:21;;;;;;;6.82;2.80;;;7.10;99.90;;;;;;4215159;28;20086;-85
2022/10/20 01:20:25;;;;;;;9.70;2.90;;;7.10;99.90;;;;;;4215422;28;20036;-85
2022/10/20 01:23:03;;;;;;;12.38;3.90;;;7.00;99.90;;;;;;4215983;28;20059;-85
2022/10/20 01:25:12;;;;;;;5.23;3.00;;;7.10;99.90;;;;;;4215810;28;20032;-85
2022/10/20 01:27:31;;;;;;;9.43;3.88;;;7.10;99.90;;;;;;4215435;28;20127;-85
2022/10/20 01:29:35;;;;;;;;;;;7.00;99.90;;;;;;4212461;28;20499;-85
2022/10/20 01:31:45;;;;;;;8.80;3.00;;;7.00;99.90;;;;;;4213739;28;19923;-85
2022/10/20 01:33:55;;;;;;;10.02;3.17;;;7.00;99.90;;;;;;4213730;28;20040;-85
2022/10/20 01:36:19;;;;;;;9.20;3.05;;;6.90;99.90;;;;;;4232812;28;20059;-85
2022/10/20 01:38:32;;;;;;;6.10;3.15;;;6.90;99.90;;;;;;4215896;28;20490;-86
2022/10/20 01:41:04;;;;;;;7.22;3.15;;;6.90;99.90;;;;;;4217280;28;20101;-85
2022/10/20 01:43:10;;;;;;;11.60;3.38;;;6.90;99.90;;;;;;4215488;28;20052;-85
2022/10/20 01:45:13;;;;;;;6.72;2.83;;;6.90;99.90;;;;;;4231696;28;20508;-86
2022/10/20 01:47:16;;;;;;;8.27;3.20;;;6.90;99.90;;;;;;4218471;28;20044;-88
2022/10/20 01:49:21;;;;;;;9.18;3.88;;;6.90;99.90;;;;;;4210974;28;20514;-86
2022/10/20 01:51:23;;;;;;;11.07;2.90;;;6.80;99.90;;;;;;4233234;28;20048;-86
2022/10/20 01:53:23;;;;;;;8.60;3.05;;;6.80;99.90;;;;;;4218920;28;20044;-86
2022/10/20 01:55:24;;;;;;;7.88;2.72;;;6.80;99.90;;;;;;4218731;28;20047;-86
2022/10/20 01:57:31;;;;;;;6.13;2.90;;;6.80;99.90;;;;;;4217680;28;20058;-87
2022/10/20 01:59:59;;;;;;;5.10;3.00;;;6.70;99.90;;;;;;4201825;28;20048;-86
2022/10/20 02:02:27;;;;;;;7.05;2.92;;;6.70;99.90;;;;;;4203582;28;20088;-86
2022/10/20 02:04:54;;;;;;;7.57;3.00;;;6.70;99.90;;;;;;4235771;28;20543;-86
2022/10/20 02:07:07;;;;;;;10.60;2.95;;;6.70;99.90;;;;;;4223154;28;20494;-86
2022/10/20 02:09:25;;;;;;;8.30;3.15;;;7.00;99.90;;;;;;4217778;28;20063;-86
2022/10/20 02:12:03;;;;;;;9.25;3.42;;;6.60;99.90;;;;;;4216996;28;20036;-86
2022/10/20 02:14:06;;;;;;;7.40;3.33;;;6.70;99.90;;;;;;4217674;28;20051;-86
2022/10/20 02:16:15;;;;;;;8.10;2.72;;;6.60;99.90;;;;;;4217422;28;20055;-86
2022/10/20 02:18:21;;;;;;;6.55;3.40;;;6.70;99.90;;;;;;4218614;28;20119;-86
2022/10/20 02:20:23;;;;;;;14.18;3.67;;;6.60;99.90;;;;;;4200867;28;20059;-87
2022/10/20 02:22:25;;;;;;;8.10;3.03;;;6.60;99.90;;;;;;4200716;28;20063;-86
2022/10/20 02:24:33;;;;;;;8.52;2.72;;;7.00;99.90;;;;;;4200875;28;20053;-86
2022/10/20 02:26:36;;;;;;;8.88;3.05;;;6.50;99.90;;;;;;4218075;28;20087;-86
2022/10/20 02:28:41;;;;;;;7.25;2.95;;;6.50;99.90;;;;;;4201186;28;20134;-86
2022/10/20 02:30:44;;;;;;;5.22;2.88;;;6.50;99.90;;;;;;4200226;28;20044;-86
2022/10/20 02:32:51;;;;;;;5.72;2.83;;;6.70;99.90;;;;;;4200757;28;20075;-86
2022/10/20 02:34:52;;;;;;;9.07;3.28;;;6.50;99.90;;;;;;4218638;28;20048;-86
2022/10/20 02:36:57;;;;;;;6.75;3.08;;;7.00;99.90;;;;;;4217484;28;20075;-86
2022/10/20 02:38:57;;;;;;;11.63;3.45;;;6.50;99.90;;;;;;4224155;28;20035;-86
2022/10/20 02:40:59;;;;;;;6.45;2.80;;;6.50;99.90;;;;;;4217338;28;20063;-86
2022/10/20 02:43:00;;;;;;;8.32;3.10;;;6.50;99.90;;;;;;4217690;28;20047;-86
2022/10/20 02:45:01;;;;;;;6.22;2.83;;;6.50;99.90;;;;;;4235030;28;20051;-87
2022/10/20 02:47:02;;;;;;;7.35;3.00;;;6.50;99.90;;;;;;4234907;28;20039;-87
2022/10/20 02:49:02;;;;;;;5.88;2.72;;;6.50;99.90;;;;;;4250842;27;20161;-86
2022/10/20 02:51:05;;;;;;;6.20;2.80;;;6.50;99.90;;;;;;4234845;28;20044;-86
2022/10/20 02:53:06;;;;;;;7.05;3.03;;;6.50;99.90;;;;;;4234753;28;20051;-86
2022/10/20 02:55:07;;;;;;;7.55;3.25;;;6.40;99.90;;;;;;4235598;28;20054;-85
2022/10/20 02:57:10;;;;;;;5.78;3.47;;;6.40;99.90;;;;;;4235006;28;20055;-86
2022/10/20 02:59:14;;;;;;;7.53;3.67;;;6.70;99.90;;;;;;4217536;28;20048;-87
2022/10/20 03:01:16;;;;;;;14.15;4.30;;;6.40;99.90;;;;;;4233974;28;20101;-86
2022/10/20 03:03:18;;;;;;;6.55;3.03;;;6.40;99.90;;;;;;4234261;28;20455;-86
2022/10/20 03:05:19;;;;;;;5.18;3.25;;;6.50;99.90;;;;;;4250381;27;20127;-86
2022/10/20 03:07:20;;;;;;;5.57;3.33;;;6.40;99.90;;;;;;4234910;28;20520;-86
2022/10/20 03:09:22;;;;;;;5.75;2.92;;;6.30;99.90;;;;;;4233457;28;20051;-86
2022/10/20 03:11:23;;;;;;;8.15;2.72;;;6.50;99.90;;;;;;4234651;28;20134;-86
2022/10/20 03:13:23;;;;;;;9.68;4.40;;;6.30;99.90;;;;;;4216417;28;20486;-86
2022/10/20 03:15:25;;;;;;;8.35;3.25;;;6.30;99.90;;;;;;4233757;28;20051;-86
2022/10/20 03:17:27;;;;;;;6.05;3.47;;;6.40;99.90;;;;;;4216621;28;20421;-86
2022/10/20 03:19:27;;;;;;;6.57;3.03;;;6.90;99.90;;;;;;4251076;27;20035;-87
2022/10/20 03:21:28;;;;;;;12.35;4.00;;;6.20;99.90;;;;;;4234378;28;20065;-87
2022/10/20 03:23:29;;;;;;;9.68;2.97;;;6.30;99.90;;;;;;4234168;28;20504;-86
2022/10/20 03:25:31;;;;;;;6.28;3.47;;;6.30;99.90;;;;;;4234174;28;20039;-86
2022/10/20 03:27:31;;;;;;;8.52;3.03;;;6.30;99.90;;;;;;4233296;28;20520;-87
2022/10/20 03:29:32;;;;;;;6.53;3.25;;;6.20;99.90;;;;;;4216100;28;20055;-87
2022/10/20 03:31:36;;;;;;;6.30;3.67;;;6.30;99.90;;;;;;4234230;28;20485;-86
2022/10/20 03:33:37;;;;;;;9.32;3.90;;;6.30;99.90;;;;;;4233934;28;20127;-87
2022/10/20 03:35:39;;;;;;;6.53;3.28;;;6.40;99.90;;;;;;4233089;28;20051;-87
2022/10/20 03:37:41;;;;;;;12.05;3.90;;;6.30;99.90;;;;;;4213727;28;20054;-86
2022/10/20 03:39:42;;;;;;;10.27;3.60;;;6.20;99.90;;;;;;4211000;28;20044;-87
2022/10/20 03:41:43;;;;;;;12.95;4.07;;;6.20;99.90;;;;;;4234118;28;20444;-86
2022/10/20 03:43:45;;;;;;;14.38;4.05;;;6.20;99.90;;;;;;4232514;28;20081;-86
2022/10/20 03:45:45;;;;;;;13.60;4.88;;;6.20;99.90;;;;;;4235139;28;20055;-87
2022/10/20 03:47:46;;;;;;;7.88;3.67;;;6.20;99.90;;;;;;4232952;28;20047;-87
2022/10/20 03:49:47;;;;;;;8.00;3.80;;;6.20;99.90;;;;;;4233339;28;20651;-86
2022/10/20 03:51:49;;;;;;;8.93;3.88;;;6.20;99.90;;;;;;4231156;28;20544;-87
2022/10/20 03:53:50;;;;;;;7.63;3.42;;;6.60;99.90;;;;;;4231701;28;20055;-86
2022/10/20 03:55:51;;;;;;;7.00;3.25;;;6.20;99.90;;;;;;4231858;28;20035;-86
2022/10/20 03:57:52;;;;;;;7.97;3.53;;;6.20;99.90;;;;;;4231841;28;20047;-87
2022/10/20 03:59:52;;;;;;;6.28;3.25;;;6.20;99.90;;;;;;4230838;28;20139;-87
2022/10/20 04:01:53;;;;;;;11.13;4.28;;;6.40;99.90;;;;;;4231395;28;20044;-87
2022/10/20 04:03:54;;;;;;;9.52;4.03;;;6.20;99.90;;;;;;4231193;28;20438;-87
2022/10/20 04:05:55;;;;;;;6.78;3.53;;;6.20;99.90;;;;;;4226862;28;20051;-87
2022/10/20 04:07:56;;;;;;;7.82;4.15;;;6.70;99.90;;;;;;4233321;28;20093;-87
2022/10/20 04:10:01;;;;;;;9.52;4.30;;;6.10;99.90;;;;;;4216019;28;20051;-87
2022/10/20 04:12:02;;;;;;;9.60;4.25;;;6.10;99.90;;;;;;4233469;28;20047;-87
2022/10/20 04:14:03;;;;;;;7.63;4.03;;;6.20;99.90;;;;;;4232596;28;20077;-87
2022/10/20 04:16:04;;;;;;;5.50;3.75;;;6.10;99.90;;;;;;4233261;28;20051;-87
2022/10/20 04:18:06;;;;;;;8.98;4.68;;;6.20;99.90;;;;;;4215740;28;20040;-86
2022/10/20 04:20:10;;;;;;;10.13;4.30;;;6.10;99.90;;;;;;4233107;28;20052;-85
2022/10/20 04:22:11;;;;;;;10.68;4.70;;;6.10;99.90;;;;;;4233067;28;20031;-87
2022/10/20 04:24:12;;;;;;;7.30;4.13;;;6.10;99.90;;;;;;4215451;28;20052;-86
2022/10/20 04:26:15;;;;;;;10.55;4.47;;;6.10;99.90;;;;;;4233022;28;20093;-86
2022/10/20 04:28:18;;;;;;;7.88;4.47;;;6.10;99.90;;;;;;4238923;28;20096;-86
2022/10/20 04:30:19;;;;;;;8.63;4.30;;;6.10;99.90;;;;;;4232578;28;20054;-85
2022/10/20 04:32:19;;;;;;;7.82;4.47;;;6.10;99.90;;;;;;4248595;28;20058;-86
2022/10/20 04:34:20;;;;;;;11.32;4.75;;;6.40;99.90;;;;;;4249720;28;20047;-86
2022/10/20 04:36:22;;;;;;;10.88;4.50;;;6.10;99.90;;;;;;4249432;28;20032;-85
2022/10/20 04:38:24;;;;;;;10.30;5.57;;;6.10;99.90;;;;;;4263668;27;20039;-86
2022/10/20 04:40:24;;;;;;;11.10;5.30;;;6.10;99.90;;;;;;4231553;28;20048;-85
2022/10/20 04:42:25;;;;;;;10.55;4.82;;;6.10;99.90;;;;;;4248516;28;20070;-86
2022/10/20 04:44:26;;;;;;;8.70;4.82;;;6.10;99.90;;;;;;4249136;28;20039;-86
2022/10/20 04:46:27;;;;;;;8.35;4.97;;;6.10;99.90;;;;;;4248494;28;20053;-87
2022/10/20 04:48:28;;;;;;;11.23;4.82;;;6.10;99.90;;;;;;4227642;28;20051;-87
2022/10/20 04:50:30;;;;;;;8.65;5.00;;;6.10;99.90;;;;;;4236477;28;20053;-86
2022/10/20 04:52:32;;;;;;;10.00;5.70;;;6.10;99.90;;;;;;4217482;28;20040;-86
2022/10/20 04:54:33;;;;;;;11.43;4.85;;;6.10;99.90;;;;;;4235581;28;20493;-86
2022/10/20 04:56:35;;;;;;;11.95;4.63;;;6.40;99.90;;;;;;4233715;28;20074;-85
2022/10/20 04:58:37;;;;;;;15.80;5.38;;;6.10;99.90;;;;;;4233985;28;20039;-86
2022/10/20 05:00:37;;;;;;;11.70;5.32;;;6.10;99.90;;;;;;4202653;28;20049;-86
2022/10/20 05:02:38;;;;;;;11.93;5.22;;;6.40;99.90;;;;;;4217572;28;20255;-86
2022/10/20 05:04:39;;;;;;;10.73;5.05;;;6.10;99.90;;;;;;4216301;28;20190;-86
2022/10/20 05:06:40;;;;;;;10.48;5.53;;;6.00;99.90;;;;;;4199285;28;20119;-86
2022/10/20 05:08:43;;;;;;;13.65;5.65;;;6.00;99.90;;;;;;4211786;28;20579;-86
2022/10/20 05:10:43;;;;;;;10.05;5.53;;;6.00;99.90;;;;;;4237422;28;20047;-85
2022/10/20 05:12:46;;;;;;;11.88;5.28;;;6.10;99.90;;;;;;4235640;28;20040;-85
2022/10/20 05:14:47;;;;;;;10.50;5.22;;;6.00;99.90;;;;;;4219862;28;20070;-85
2022/10/20 05:16:47;;;;;;;12.70;5.95;;;6.30;99.90;;;;;;4222778;28;20083;-87
2022/10/20 05:18:50;;;;;;;12.75;5.85;;;6.00;99.90;;;;;;4201707;28;20244;-85
2022/10/20 05:20:51;;;;;;;9.80;4.93;;;6.00;99.90;;;;;;4220489;28;20044;-87
2022/10/20 05:22:52;;;;;;;14.15;5.63;;;6.00;99.90;;;;;;4202040;28;20052;-87
2022/10/20 05:24:53;;;;;;;10.68;5.38;;;6.00;99.90;;;;;;4219159;28;20092;-85
2022/10/20 05:26:53;;;;;;;10.98;5.30;;;6.20;99.90;;;;;;4218536;28;20055;-86
2022/10/20 05:28:55;;;;;;;14.98;5.97;;;6.00;99.90;;;;;;4201734;28;20048;-86
2022/10/20 05:30:59;;;;;;;9.60;5.75;;;6.00;99.90;;;;;;4219624;28;20040;-84
2022/10/20 05:33:00;;;;;;;12.52;5.70;;;6.30;99.90;;;;;;4219179;28;20051;-86
2022/10/20 05:35:02;;;;;;;9.63;5.53;;;6.00;99.90;;;;;;4218965;28;20135;-85
2022/10/20 05:37:02;;;;;;;10.75;5.72;;;6.00;99.90;;;;;;4220547;28;20048;-85
2022/10/20 05:39:03;;;;;;;11.25;5.40;;;5.90;99.90;;;;;;4220139;28;20044;-86
2022/10/20 05:41:16;;;;;;;12.07;5.65;;;5.90;99.90;;;;;;4218096;28;20548;-87
2022/10/20 05:43:18;;;;;;;11.38;5.65;;;5.90;99.90;;;;;;4201514;28;20414;-86
2022/10/20 05:45:21;;;;;;;13.90;6.28;;;5.90;99.90;;;;;;4220137;28;20101;-86
2022/10/20 05:47:22;;;;;;;11.90;6.50;;;5.90;99.90;;;;;;4217888;28;20052;-86
2022/10/20 05:49:23;;;;;;;12.32;5.53;;;5.90;99.90;;;;;;4218591;28;20052;-86
2022/10/20 05:51:29;;;;;;;10.40;5.95;;;5.90;99.90;;;;;;4201122;28;20123;-86
2022/10/20 05:53:30;;;;;;;10.80;5.65;;;6.00;99.90;;;;;;4219596;28;20044;-87
2022/10/20 05:55:31;;;;;;;9.90;5.95;;;5.90;99.90;;;;;;4217837;28;20058;-87
2022/10/20 05:57:32;;;;;;;10.05;5.35;;;5.90;99.90;;;;;;4200860;28;20052;-87
2022/10/20 05:59:34;;;;;;;17.80;6.15;;;5.90;99.90;;;;;;4223306;28;20043;-87
2022/10/20 06:01:46;;;;;;;13.30;6.22;;;6.50;99.90;;;;;;4235905;28;20063;-87
2022/10/20 06:03:54;;;;;;;13.52;6.07;;;5.90;99.90;;;;;;4235506;28;20048;-86
2022/10/20 06:05:59;;;;;;;12.60;6.72;;;5.90;99.90;;;;;;4234538;28;20048;-86
2022/10/20 06:07:59;;;;;;;18.25;7.00;;;5.80;99.90;;;;;;4233689;28;20058;-86
2022/10/20 06:10:02;;;;;;;20.83;6.20;;;6.10;99.90;;;;;;4217215;28;20440;-86
2022/10/20 06:12:04;;;;;;;14.65;6.30;;;5.80;99.90;;;;;;4216691;28;20131;-87
2022/10/20 06:14:06;;;;;;;11.77;6.10;;;5.80;99.90;;;;;;4234212;28;20062;-86
2022/10/20 06:16:12;;;;;;;11.52;5.43;;;5.80;99.90;;;;;;4231300;28;20039;-86
2022/10/20 06:18:13;;;;;;;13.32;6.75;;;5.90;99.90;;;;;;4231391;28;20130;-87
2022/10/20 06:20:14;;;;;;;13.50;6.90;;;5.80;99.90;;;;;;4213933;28;20052;-87
2022/10/20 06:22:17;;;;;;;13.90;6.20;;;5.80;99.90;;;;;;4219700;28;20535;-86
2022/10/20 06:24:18;;;;;;;16.27;7.00;;;5.80;99.90;;;;;;4215022;28;20040;-87
2022/10/20 06:26:22;;;;;;;15.27;7.10;;;5.90;99.90;;;;;;4215662;28;20087;-87
2022/10/20 06:28:24;;;;;;;13.50;6.50;;;5.80;99.90;;;;;;4198075;28;20043;-86
2022/10/20 06:30:26;;;;;;;12.75;6.68;;;6.80;99.90;;;;;;4219605;28;20129;-86
2022/10/20 06:32:27;;;;;;;14.60;6.40;;;6.90;99.90;;;;;;4198836;28;20041;-86
2022/10/20 06:34:28;;;;;;;11.23;6.25;;;6.10;99.90;;;;;;4217497;28;20044;-86
2022/10/20 06:36:33;;;;;;;11.95;5.95;;;5.90;99.90;;;;;;4234173;28;20126;-87
2022/10/20 06:38:33;;;;;;;16.17;7.18;;;6.00;99.90;;;;;;4233234;28;20078;-86
2022/10/20 06:40:34;;;;;;;11.48;6.07;;;6.00;99.90;;;;;;4233470;28;20047;-86
2022/10/20 06:42:35;;;;;;;12.65;6.25;;;6.00;99.90;;;;;;4234223;28;20039;-86
2022/10/20 06:44:37;;;;;;;13.15;6.88;;;6.00;99.90;;;;;;4233211;28;20492;-85
2022/10/20 06:46:38;;;;;;;13.88;6.22;;;6.00;99.90;;;;;;4221679;28;20489;-86
2022/10/20 06:48:39;;;;;;;13.40;7.05;;;6.10;99.90;;;;;;4199954;28;20056;-85
2022/10/20 06:50:41;;;;;;;12.10;6.95;;;6.10;99.90;;;;;;4200642;28;20133;-86
2022/10/20 06:52:43;;;;;;;14.93;6.90;;;7.10;99.90;;;;;;4217384;28;20409;-86
2022/10/20 06:54:44;;;;;;;11.90;7.35;;;6.90;99.90;;;;;;4199788;28;20052;-86
2022/10/20 06:56:45;;;;;;;14.60;7.00;;;6.20;99.90;;;;;;4199637;28;20486;-86
2022/10/20 06:58:48;;;;;;;16.80;7.28;;;6.20;99.90;;;;;;4215909;28;20044;-86
2022/10/20 07:01:07;;;;;;;15.45;7.05;;;7.20;99.90;;;;;;4215217;28;20525;-85
2022/10/20 07:03:08;;;;;;;14.80;6.38;;;6.30;99.90;;;;;;4205277;28;20044;-86
2022/10/20 07:05:12;;;;;;;11.35;6.72;;;6.30;99.90;;;;;;4215412;28;20445;-86
2022/10/20 07:07:13;;;;;;;14.95;7.25;;;6.40;99.90;;;;;;4215938;28;20055;-84
2022/10/20 07:09:17;;;;;;;12.35;6.63;;;7.30;99.90;;;;;;4232614;28;20405;-86
2022/10/20 07:11:22;;;;;;;14.27;6.60;;;6.40;99.90;;;;;;4215783;28;20393;-86
2022/10/20 07:13:24;;;;;;;13.80;6.63;;;7.10;99.90;;;;;;4232710;28;20051;-86
2022/10/20 07:15:26;;;;;;;15.75;7.65;;;6.90;99.90;;;;;;4225864;28;206715;-89
2022/10/20 07:17:26;;;;;;;16.20;7.20;;;5.00;99.90;;;;;;4234059;28;20058;-88
2022/10/20 07:19:28;;;;;;;14.18;7.20;;;6.50;99.90;;;;;;4217027;28;20402;-87
2022/10/20 07:21:30;;;;;;;14.57;7.40;;;7.40;99.90;;;;;;4233021;28;20055;-87
2022/10/20 07:23:34;;;;;;;12.57;6.55;;;6.60;99.90;;;;;;4217083;28;20048;-87
2022/10/20 07:25:37;;;;;;;12.93;7.35;;;6.60;99.90;;;;;;4235203;28;20047;-86
2022/10/20 07:27:38;;;;;;;12.88;7.60;;;6.70;99.90;;;;;;4216552;28;20410;-86
2022/10/20 07:29:39;;;;;;;16.67;6.55;;;6.70;99.90;;;;;;4233572;28;20069;-85
2022/10/20 07:31:44;;;;;;;13.60;6.90;;;6.80;99.90;;;;;;4218977;28;20044;-88
2022/10/20 07:33:47;;;;;;;17.73;7.82;;;7.00;99.90;;;;;;4223335;28;20440;-88
2022/10/20 07:35:49;;;;;;;14.32;7.45;;;6.90;99.90;;;;;;4227592;28;20266;-89
2022/10/20 07:37:50;;;;;;;17.08;7.22;;;7.20;99.90;;;;;;4222431;28;20118;-90
2022/10/20 07:39:51;;;;;;;14.93;6.57;;;6.90;99.90;;;;;;4234121;28;20043;-90
2022/10/20 07:41:52;;;;;;;14.82;6.82;;;7.30;99.90;;;;;;4236928;28;20040;-86
2022/10/20 07:43:54;;;;;;;13.15;7.72;;;7.40;99.90;;;;;;4235558;28;20054;-89
2022/10/20 07:45:57;;;;;;;13.25;7.05;;;7.60;99.90;;;;;;4217355;28;20044;-90
2022/10/20 07:47:58;;;;;;;13.88;6.90;;;7.60;99.90;;;;;;4217352;28;20040;-89
2022/10/20 07:49:59;;;;;;;12.52;6.95;;;7.00;99.90;;;;;;4234457;28;20077;-89
2022/10/20 07:52:07;;;;;;;14.05;6.80;;;6.30;99.90;;;;;;4236029;28;20043;-90
2022/10/20 07:54:10;;;;;;;14.88;7.18;;;5.80;99.90;;;;;;4217776;28;20036;-89
2022/10/20 07:56:11;;;;;;;12.13;6.32;;;7.20;99.90;;;;;;4220198;28;20074;-89
2022/10/20 07:58:16;;;;;;;14.20;7.10;;;7.30;99.90;;;;;;4224137;28;20040;-89
2022/10/20 08:00:17;;;;;;;12.30;5.82;;;7.30;99.90;;;;;;4225994;28;20131;-90
2022/10/20 08:02:19;;;;;;;16.83;6.32;;;7.40;99.90;;;;;;4225685;28;20040;-91
2022/10/20 08:04:26;;;;;;;14.75;5.82;;;7.40;99.90;;;;;;4221699;28;20044;-90
2022/10/20 08:06:35;;;;;;;8.95;5.53;;;7.40;99.90;;;;;;4211526;28;20052;-89
2022/10/20 08:08:36;;;;;;;12.55;6.30;;;7.40;99.90;;;;;;4214342;28;20518;-87
2022/10/20 08:10:37;;;;;;;12.60;6.20;;;7.70;99.90;;;;;;4237744;28;20074;-87
2022/10/20 08:12:38;;;;;;;12.63;6.30;;;7.60;99.90;;;;;;4236765;28;20052;-86
2022/10/20 08:14:39;;;;;;;14.48;6.22;;;7.60;99.90;;;;;;4217990;28;20048;-85
2022/10/20 08:16:41;;;;;;;11.65;5.80;;;7.70;99.90;;;;;;4235477;28;20512;-87
2022/10/20 08:18:43;;;;;;;11.20;6.28;;;7.80;99.90;;;;;;4233482;28;20043;-87
2022/10/20 08:20:45;;;;;;;11.90;6.20;;;6.70;99.90;;;;;;4232958;28;20077;-87
2022/10/20 08:22:47;;;;;;;11.02;6.55;;;8.00;99.90;;;;;;4234402;28;20096;-87
2022/10/20 08:24:49;;;;;;;11.50;5.43;;;8.20;99.90;;;;;;4223168;28;20085;-86
2022/10/20 08:26:50;;;;;;;12.77;5.63;;;8.10;99.90;;;;;;4233134;28;20040;-86
2022/10/20 08:28:52;;;;;;;12.50;6.10;;;8.30;99.90;;;;;;4234204;28;20123;-87
2022/10/20 08:30:53;;;;;;;11.68;5.45;;;8.40;99.90;;;;;;4234687;28;20039;-89
2022/10/20 08:32:55;;;;;;;9.45;5.90;;;8.40;99.90;;;;;;4232524;28;20059;-87
2022/10/20 08:34:57;;;;;;;9.57;6.07;;;8.30;99.90;;;;;;4233903;28;20039;-89
2022/10/20 08:36:59;;;;;;;9.85;5.25;;;8.40;99.90;;;;;;4231915;28;20073;-87
2022/10/20 08:39:00;;;;;;;12.38;5.47;;;8.50;99.90;;;;;;4213967;28;20401;-87
2022/10/20 08:41:02;;;;;;;11.98;6.22;;;8.50;99.90;;;;;;4209491;28;20123;-87
2022/10/20 08:43:02;;;;;;;10.75;5.55;;;8.60;99.90;;;;;;4222933;28;20085;-86
2022/10/20 08:45:06;;;;;;;9.52;5.60;;;8.90;99.90;;;;;;4216981;28;20040;-87
2022/10/20 08:47:23;;;;;;;12.48;5.85;;;9.00;99.90;;;;;;4210645;28;20046;-90
2022/10/20 08:49:30;;;;;;;11.20;5.22;;;9.20;99.90;;;;;;4215682;28;20048;-89
2022/10/20 08:51:36;;;;;;;11.05;5.57;;;9.40;99.90;;;;;;4229318;28;20093;-87
2022/10/20 08:53:38;;;;;;;11.10;5.40;;;8.20;99.90;;;;;;4197407;28;20105;-89
2022/10/20 08:55:43;;;;;;;12.15;5.50;;;9.40;99.90;;;;;;4215417;28;20040;-88
2022/10/20 08:57:47;;;;;;;7.95;5.00;;;9.30;99.90;;;;;;4197398;28;20105;-88
2022/10/20 08:59:51;;;;;;;11.60;5.85;;;9.50;99.90;;;;;;4214763;28;20036;-88
2022/10/20 09:01:53;;;;;;;14.68;5.38;;;9.50;99.90;;;;;;4214436;28;20115;-87
2022/10/20 09:03:57;;;;;;;9.35;4.70;;;9.50;99.90;;;;;;4196647;28;20075;-86
2022/10/20 09:06:06;;;;;;;8.73;5.07;;;9.60;99.90;;;;;;4196256;28;20052;-87
2022/10/20 09:08:08;;;;;;;8.02;4.60;;;9.70;99.90;;;;;;4200320;28;20388;-87
2022/10/20 09:10:44;;;;;;;8.65;4.93;;;9.80;99.90;;;;;;4213673;28;20055;-87
2022/10/20 09:12:47;;;;;;;10.60;5.25;;;10.00;99.90;;;;;;4217340;28;20048;-86
2022/10/20 09:14:48;;;;;;;11.85;5.03;;;10.20;99.90;;;;;;4221660;28;20059;-87
2022/10/20 09:16:49;;;;;;;9.50;5.43;;;10.40;99.90;;;;;;4207535;28;20839;-86
2022/10/20 09:18:54;;;;;;;11.23;4.93;;;10.80;99.90;;;;;;4233416;28;20055;-87
2022/10/20 09:21:03;;;;;;;7.03;4.53;;;11.30;99.90;;;;;;4232770;28;20043;-87
2022/10/20 09:23:04;;;;;;;12.18;4.25;;;11.80;99.90;;;;;;4231601;28;20055;-87
2022/10/20 09:25:15;;;;;;;8.98;4.60;;;12.20;99.90;;;;;;4232346;28;20048;-87
2022/10/20 09:27:28;;;;;;;11.07;4.70;;;12.30;99.90;;;;;;4218340;28;20047;-87
2022/10/20 09:29:37;;;;;;;10.57;4.60;;;12.50;99.90;;;;;;4214206;28;20052;-87
2022/10/20 09:31:40;;;;;;;;;;;12.80;99.90;;;;;;4198341;28;20048;-87
2022/10/20 09:33:40;;;;;;;6.88;4.10;;;12.60;99.90;;;;;;4202807;28;19920;-88
2022/10/20 09:35:45;;;;;;;10.55;4.43;;;12.60;99.90;;;;;;4223049;28;20058;-88
2022/10/20 09:37:58;;;;;;;6.95;4.35;;;12.40;99.90;;;;;;4232905;28;20040;-87
2022/10/20 09:40:00;;;;;;;10.35;4.68;;;12.30;99.90;;;;;;4225885;28;20059;-88
2022/10/20 09:42:06;;;;;;;6.97;4.50;;;12.00;99.90;;;;;;4227375;28;20048;-88
2022/10/20 09:44:16;;;;;;;8.55;4.22;;;11.90;99.90;;;;;;4215755;28;20044;-88
2022/10/20 09:46:21;;;;;;;10.73;4.90;;;11.80;99.90;;;;;;4220587;28;20040;-88
2022/10/20 09:48:50;;;;;;;9.48;4.53;;;11.70;99.90;;;;;;4229930;28;20048;-89
2022/10/20 09:50:54;;;;;;;9.77;4.30;;;11.50;99.90;;;;;;4212834;28;20098;-87
2022/10/20 09:52:58;;;;;;;8.10;4.63;;;11.60;99.90;;;;;;4214007;28;20290;-86
2022/10/20 09:55:09;;;;;;;10.98;4.20;;;11.60;99.90;;;;;;4232487;28;20110;-87
2022/10/20 09:57:17;;;;;;;8.75;4.63;;;11.70;99.90;;;;;;4235453;28;20048;-87
2022/10/20 09:59:23;;;;;;;7.65;4.70;;;11.70;99.90;;;;;;4236964;28;20040;-86
2022/10/20 10:01:26;;;;;;;7.47;4.25;;;11.10;99.90;;;;;;4236545;28;20410;-87
2022/10/20 10:03:28;;;;;;;8.10;4.82;;;11.60;99.90;;;;;;4233303;28;20352;-87
2022/10/20 10:05:32;;;;;;;8.20;4.45;;;11.70;99.90;;;;;;4218854;28;20525;-88
2022/10/20 10:07:38;;;;;;;9.52;4.03;;;11.60;99.90;;;;;;4234149;28;20044;-87
2022/10/20 10:09:49;;;;;;;7.15;3.90;;;11.50;99.90;;;;;;4242566;28;20054;-86
2022/10/20 10:12:02;;;;;;;8.55;4.25;;;11.50;99.90;;;;;;4231853;28;20036;-88
2022/10/20 10:14:03;;;;;;;6.07;4.28;;;11.50;99.90;;;;;;4243839;28;20023;-88
2022/10/20 10:16:08;;;;;;;5.82;4.10;;;11.50;99.90;;;;;;4248266;28;20557;-87
2022/10/20 10:18:14;;;;;;;6.10;4.43;;;11.50;99.90;;;;;;4249269;28;20104;-86
2022/10/20 10:20:15;;;;;;;8.77;4.38;;;11.50;99.90;;;;;;4242301;28;20066;-85
2022/10/20 10:22:16;;;;;;;7.05;4.25;;;11.60;99.90;;;;;;4241318;28;20051;-85
2022/10/20 10:24:47;;;;;;;10.10;4.53;;;11.60;99.90;;;;;;4242282;28;20050;-85
2022/10/20 10:26:55;;;;;;;7.45;4.07;;;11.70;99.90;;;;;;4236312;28;20056;-86
2022/10/20 10:28:58;;;;;;;6.75;3.80;;;11.70;99.90;;;;;;4223508;28;20067;-85
2022/10/20 10:31:05;;;;;;;7.65;4.43;;;11.70;99.90;;;;;;4242626;28;20048;-86
2022/10/20 10:33:38;;;;;;;8.07;3.65;;;11.70;99.90;;;;;;4241540;28;20048;-87
2022/10/20 10:35:42;;;;;;;7.38;4.30;;;11.80;99.90;;;;;;4199583;28;20139;-87
2022/10/20 10:37:43;;;;;;;8.80;4.28;;;11.80;99.90;;;;;;4235321;28;20048;-87
2022/10/20 10:39:47;;;;;;;9.85;4.43;;;11.90;99.90;;;;;;4233387;28;20089;-87
2022/10/20 10:42:03;;;;;;;7.65;3.92;;;12.00;99.90;;;;;;4234549;28;20036;-87
2022/10/20 10:44:12;;;;;;;9.18;5.13;;;12.10;99.90;;;;;;4228605;28;20466;-86
2022/10/20 10:46:19;;;;;;;;;;;12.10;99.90;;;;;;4217248;28;20133;-87
2022/10/20 10:48:52;;;;;;;7.25;4.00;;;12.20;99.90;;;;;;4204966;28;20034;-86